Terminal Aerodrome Forecast
Issued by NWS Duluth, MN

Home | Current Version | Previous Version | Text Only | Print | Product List | Glossary On
Versions: 1 2 3 4 5 6 7 8 9 10 11 12 13 14 15 16 17 18 19 20 21 22 23 24 25 26 27 28 29 30 31 32
000
FTUS43 KDLH 260700 AAA
TAFDLH
TAF AMD
KDLH 260738Z 2608/2706 VRB05KT P6SM SCT020 OVC045
      TEMPO 2608/2612 5SM -SN OVC020
     FM261200 02008KT 5SM -SN OVC020
     FM261600 35012KT 1 1/2SM -SN BR OVC015
     FM262200 34012KT P6SM -SN OVC025
     FM270200 34014KT P6SM SCT025=

USA.gov is the U.S. government's official web portal to all federal, state and local government web resources and services.